sensor_id;sensor_type;location;lat;lon;timestamp;P1;durP1;ratioP1;P2;durP2;ratioP2
15958;SDS011;8078;47.822;9.402;2023-04-25T00:02:24;6.03;;;4.60;;
15958;SDS011;8078;47.822;9.402;2023-04-25T00:04:50;8.67;;;5.00;;
15958;SDS011;8078;47.822;9.402;2023-04-25T00:07:15;6.63;;;4.77;;
15958;SDS011;8078;47.822;9.402;2023-04-25T00:09:41;6.73;;;4.70;;
15958;SDS011;8078;47.822;9.402;2023-04-25T00:12:07;8.33;;;4.87;;
15958;SDS011;8078;47.822;9.402;2023-04-25T00:14:33;7.13;;;4.83;;
15958;SDS011;8078;47.822;9.402;2023-04-25T00:17:00;8.67;;;4.87;;
15958;SDS011;8078;47.822;9.402;2023-04-25T00:19:26;6.67;;;4.47;;
15958;SDS011;8078;47.822;9.402;2023-04-25T00:21:53;5.67;;;4.80;;
15958;SDS011;8078;47.822;9.402;2023-04-25T00:24:22;6.00;;;4.77;;
15958;SDS011;8078;47.822;9.402;2023-04-25T00:26:48;7.97;;;4.53;;
15958;SDS011;8078;47.822;9.402;2023-04-25T00:29:13;5.77;;;4.30;;
15958;SDS011;8078;47.822;9.402;2023-04-25T00:31:39;5.27;;;4.40;;
15958;SDS011;8078;47.822;9.402;2023-04-25T00:34:05;7.20;;;5.07;;
15958;SDS011;8078;47.822;9.402;2023-04-25T00:36:31;8.07;;;4.43;;
15958;SDS011;8078;47.822;9.402;2023-04-25T00:38:57;4.83;;;4.30;;
15958;SDS011;8078;47.822;9.402;2023-04-25T00:41:22;9.73;;;4.80;;
15958;SDS011;8078;47.822;9.402;2023-04-25T00:43:50;6.23;;;4.47;;
15958;SDS011;8078;47.822;9.402;2023-04-25T00:46:16;6.30;;;4.10;;
15958;SDS011;8078;47.822;9.402;2023-04-25T00:48:42;6.77;;;4.13;;
15958;SDS011;8078;47.822;9.402;2023-04-25T00:51:07;6.43;;;4.27;;
15958;SDS011;8078;47.822;9.402;2023-04-25T00:53:38;5.43;;;3.30;;
15958;SDS011;8078;47.822;9.402;2023-04-25T00:56:04;5.67;;;3.40;;
15958;SDS011;8078;47.822;9.402;2023-04-25T00:58:30;4.07;;;3.07;;
15958;SDS011;8078;47.822;9.402;2023-04-25T01:00:56;3.57;;;2.63;;
15958;SDS011;8078;47.822;9.402;2023-04-25T01:03:22;4.93;;;2.90;;
15958;SDS011;8078;47.822;9.402;2023-04-25T01:05:49;4.03;;;2.63;;
15958;SDS011;8078;47.822;9.402;2023-04-25T01:08:15;3.10;;;2.70;;
15958;SDS011;8078;47.822;9.402;2023-04-25T01:10:41;3.30;;;2.60;;
15958;SDS011;8078;47.822;9.402;2023-04-25T01:13:07;4.17;;;2.47;;
15958;SDS011;8078;47.822;9.402;2023-04-25T01:15:33;4.83;;;2.70;;
15958;SDS011;8078;47.822;9.402;2023-04-25T01:18:00;4.07;;;2.70;;
15958;SDS011;8078;47.822;9.402;2023-04-25T01:20:26;3.00;;;2.70;;
15958;SDS011;8078;47.822;9.402;2023-04-25T01:22:53;4.10;;;2.77;;
15958;SDS011;8078;47.822;9.402;2023-04-25T01:25:20;4.37;;;2.87;;
15958;SDS011;8078;47.822;9.402;2023-04-25T01:27:46;4.17;;;2.97;;
15958;SDS011;8078;47.822;9.402;2023-04-25T01:30:12;4.23;;;2.80;;
15958;SDS011;8078;47.822;9.402;2023-04-25T01:32:38;4.53;;;3.17;;
15958;SDS011;8078;47.822;9.402;2023-04-25T01:35:06;7.13;;;3.40;;
15958;SDS011;8078;47.822;9.402;2023-04-25T01:37:35;7.13;;;3.07;;
15958;SDS011;8078;47.822;9.402;2023-04-25T01:40:09;5.27;;;3.20;;
15958;SDS011;8078;47.822;9.402;2023-04-25T01:42:37;4.30;;;3.47;;
15958;SDS011;8078;47.822;9.402;2023-04-25T01:45:04;7.40;;;3.90;;
15958;SDS011;8078;47.822;9.402;2023-04-25T01:47:31;7.20;;;3.37;;
15958;SDS011;8078;47.822;9.402;2023-04-25T01:49:57;6.70;;;4.03;;
15958;SDS011;8078;47.822;9.402;2023-04-25T01:52:23;7.33;;;3.50;;
15958;SDS011;8078;47.822;9.402;2023-04-25T01:54:48;4.53;;;3.97;;
15958;SDS011;8078;47.822;9.402;2023-04-25T01:57:16;4.93;;;3.57;;
15958;SDS011;8078;47.822;9.402;2023-04-25T01:59:41;4.70;;;3.70;;
15958;SDS011;8078;47.822;9.402;2023-04-25T02:02:08;8.93;;;3.87;;
15958;SDS011;8078;47.822;9.402;2023-04-25T02:04:33;6.50;;;3.60;;
15958;SDS011;8078;47.822;9.402;2023-04-25T02:06:59;7.20;;;3.40;;
15958;SDS011;8078;47.822;9.402;2023-04-25T02:09:25;7.43;;;3.67;;
15958;SDS011;8078;47.822;9.402;2023-04-25T02:11:50;4.10;;;3.70;;
15958;SDS011;8078;47.822;9.402;2023-04-25T02:14:16;6.70;;;3.93;;
15958;SDS011;8078;47.822;9.402;2023-04-25T02:16:41;6.13;;;3.70;;
15958;SDS011;8078;47.822;9.402;2023-04-25T02:19:08;9.10;;;4.20;;
15958;SDS011;8078;47.822;9.402;2023-04-25T02:21:35;11.53;;;4.07;;
15958;SDS011;8078;47.822;9.402;2023-04-25T02:24:00;6.87;;;4.03;;
15958;SDS011;8078;47.822;9.402;2023-04-25T02:26:26;6.40;;;4.10;;
15958;SDS011;8078;47.822;9.402;2023-04-25T02:28:52;7.27;;;4.63;;
15958;SDS011;8078;47.822;9.402;2023-04-25T02:31:17;9.07;;;4.27;;
15958;SDS011;8078;47.822;9.402;2023-04-25T02:33:43;4.77;;;3.97;;
15958;SDS011;8078;47.822;9.402;2023-04-25T02:36:09;4.47;;;3.73;;
15958;SDS011;8078;47.822;9.402;2023-04-25T02:38:35;4.60;;;3.80;;
15958;SDS011;8078;47.822;9.402;2023-04-25T02:41:00;6.40;;;4.10;;
15958;SDS011;8078;47.822;9.402;2023-04-25T02:43:26;5.97;;;3.60;;
15958;SDS011;8078;47.822;9.402;2023-04-25T02:45:51;7.10;;;4.40;;
15958;SDS011;8078;47.822;9.402;2023-04-25T02:48:17;6.23;;;3.67;;
15958;SDS011;8078;47.822;9.402;2023-04-25T02:50:43;5.63;;;4.10;;
15958;SDS011;8078;47.822;9.402;2023-04-25T02:53:09;4.70;;;3.97;;
15958;SDS011;8078;47.822;9.402;2023-04-25T02:55:34;6.37;;;3.50;;
15958;SDS011;8078;47.822;9.402;2023-04-25T02:58:00;8.20;;;4.03;;
15958;SDS011;8078;47.822;9.402;2023-04-25T03:00:26;4.37;;;3.90;;
15958;SDS011;8078;47.822;9.402;2023-04-25T03:02:51;5.83;;;4.07;;
15958;SDS011;8078;47.822;9.402;2023-04-25T03:05:17;8.00;;;4.07;;
15958;SDS011;8078;47.822;9.402;2023-04-25T03:07:43;6.60;;;3.63;;
15958;SDS011;8078;47.822;9.402;2023-04-25T03:10:09;4.97;;;4.20;;
15958;SDS011;8078;47.822;9.402;2023-04-25T03:12:35;5.77;;;4.03;;
15958;SDS011;8078;47.822;9.402;2023-04-25T03:15:01;8.90;;;4.37;;
15958;SDS011;8078;47.822;9.402;2023-04-25T03:17:27;5.43;;;4.00;;
15958;SDS011;8078;47.822;9.402;2023-04-25T03:19:52;5.00;;;4.00;;
15958;SDS011;8078;47.822;9.402;2023-04-25T03:22:18;7.30;;;4.50;;
15958;SDS011;8078;47.822;9.402;2023-04-25T03:24:44;14.80;;;7.67;;
15958;SDS011;8078;47.822;9.402;2023-04-25T03:27:09;9.50;;;4.50;;
15958;SDS011;8078;47.822;9.402;2023-04-25T03:29:35;7.03;;;4.60;;
15958;SDS011;8078;47.822;9.402;2023-04-25T03:32:01;7.13;;;4.33;;
15958;SDS011;8078;47.822;9.402;2023-04-25T03:34:26;9.77;;;4.40;;
15958;SDS011;8078;47.822;9.402;2023-04-25T03:36:53;6.97;;;4.53;;
15958;SDS011;8078;47.822;9.402;2023-04-25T03:39:18;7.77;;;5.23;;
15958;SDS011;8078;47.822;9.402;2023-04-25T03:41:44;9.10;;;4.90;;
15958;SDS011;8078;47.822;9.402;2023-04-25T03:44:09;5.63;;;4.50;;
15958;SDS011;8078;47.822;9.402;2023-04-25T03:46:35;9.50;;;5.03;;
15958;SDS011;8078;47.822;9.402;2023-04-25T03:49:00;8.93;;;4.93;;
15958;SDS011;8078;47.822;9.402;2023-04-25T03:51:26;6.07;;;5.07;;
15958;SDS011;8078;47.822;9.402;2023-04-25T03:53:51;7.20;;;5.20;;
15958;SDS011;8078;47.822;9.402;2023-04-25T03:56:17;7.77;;;5.10;;
15958;SDS011;8078;47.822;9.402;2023-04-25T03:58:43;6.07;;;5.33;;
15958;SDS011;8078;47.822;9.402;2023-04-25T04:01:09;9.03;;;5.87;;
15958;SDS011;8078;47.822;9.402;2023-04-25T04:03:35;10.33;;;5.43;;
15958;SDS011;8078;47.822;9.402;2023-04-25T04:06:01;6.57;;;5.37;;
15958;SDS011;8078;47.822;9.402;2023-04-25T04:08:29;10.07;;;5.53;;
15958;SDS011;8078;47.822;9.402;2023-04-25T04:10:55;9.53;;;5.73;;
15958;SDS011;8078;47.822;9.402;2023-04-25T04:13:20;11.80;;;6.33;;
15958;SDS011;8078;47.822;9.402;2023-04-25T04:15:46;8.77;;;5.60;;
15958;SDS011;8078;47.822;9.402;2023-04-25T04:18:11;11.80;;;5.87;;
15958;SDS011;8078;47.822;9.402;2023-04-25T04:20:37;8.07;;;5.80;;
15958;SDS011;8078;47.822;9.402;2023-04-25T04:23:02;10.60;;;6.00;;
15958;SDS011;8078;47.822;9.402;2023-04-25T04:25:28;10.93;;;6.20;;
15958;SDS011;8078;47.822;9.402;2023-04-25T04:27:55;7.30;;;5.80;;
15958;SDS011;8078;47.822;9.402;2023-04-25T04:30:23;7.27;;;5.87;;
15958;SDS011;8078;47.822;9.402;2023-04-25T04:32:50;9.83;;;5.80;;
15958;SDS011;8078;47.822;9.402;2023-04-25T04:35:16;10.33;;;5.67;;
15958;SDS011;8078;47.822;9.402;2023-04-25T04:37:42;11.43;;;6.37;;
15958;SDS011;8078;47.822;9.402;2023-04-25T04:40:09;10.87;;;5.90;;
15958;SDS011;8078;47.822;9.402;2023-04-25T04:42:34;11.67;;;6.00;;
15958;SDS011;8078;47.822;9.402;2023-04-25T04:45:01;8.37;;;5.67;;
15958;SDS011;8078;47.822;9.402;2023-04-25T04:47:29;8.53;;;5.80;;
15958;SDS011;8078;47.822;9.402;2023-04-25T04:49:58;7.17;;;5.93;;
15958;SDS011;8078;47.822;9.402;2023-04-25T04:52:24;8.50;;;5.23;;
15958;SDS011;8078;47.822;9.402;2023-04-25T04:54:50;8.83;;;5.20;;
15958;SDS011;8078;47.822;9.402;2023-04-25T04:57:15;8.50;;;5.13;;
15958;SDS011;8078;47.822;9.402;2023-04-25T04:59:44;8.67;;;5.60;;
15958;SDS011;8078;47.822;9.402;2023-04-25T05:02:09;7.33;;;4.87;;
15958;SDS011;8078;47.822;9.402;2023-04-25T05:04:35;8.33;;;5.10;;
15958;SDS011;8078;47.822;9.402;2023-04-25T05:07:01;7.20;;;4.70;;
15958;SDS011;8078;47.822;9.402;2023-04-25T05:09:26;8.60;;;4.73;;
15958;SDS011;8078;47.822;9.402;2023-04-25T05:11:52;8.70;;;4.97;;
15958;SDS011;8078;47.822;9.402;2023-04-25T05:14:17;9.47;;;4.53;;
15958;SDS011;8078;47.822;9.402;2023-04-25T05:16:43;7.70;;;4.93;;
15958;SDS011;8078;47.822;9.402;2023-04-25T05:19:09;8.53;;;4.83;;
15958;SDS011;8078;47.822;9.402;2023-04-25T05:21:35;5.07;;;4.13;;
15958;SDS011;8078;47.822;9.402;2023-04-25T05:24:00;8.57;;;4.60;;
15958;SDS011;8078;47.822;9.402;2023-04-25T05:26:26;5.80;;;4.30;;
15958;SDS011;8078;47.822;9.402;2023-04-25T05:28:55;6.97;;;4.50;;
15958;SDS011;8078;47.822;9.402;2023-04-25T05:31:22;11.53;;;4.60;;
15958;SDS011;8078;47.822;9.402;2023-04-25T05:33:47;5.70;;;3.73;;
15958;SDS011;8078;47.822;9.402;2023-04-25T05:36:13;7.30;;;3.97;;
15958;SDS011;8078;47.822;9.402;2023-04-25T05:38:38;6.40;;;4.17;;
15958;SDS011;8078;47.822;9.402;2023-04-25T05:41:04;10.33;;;4.00;;
15958;SDS011;8078;47.822;9.402;2023-04-25T05:43:29;6.77;;;4.00;;
15958;SDS011;8078;47.822;9.402;2023-04-25T05:45:55;10.00;;;4.30;;
15958;SDS011;8078;47.822;9.402;2023-04-25T05:48:21;5.60;;;4.00;;
15958;SDS011;8078;47.822;9.402;2023-04-25T05:50:46;4.97;;;3.97;;
15958;SDS011;8078;47.822;9.402;2023-04-25T05:53:12;11.13;;;3.93;;
15958;SDS011;8078;47.822;9.402;2023-04-25T05:55:37;5.80;;;3.87;;
15958;SDS011;8078;47.822;9.402;2023-04-25T05:58:04;7.03;;;3.83;;
15958;SDS011;8078;47.822;9.402;2023-04-25T06:00:30;6.87;;;3.70;;
15958;SDS011;8078;47.822;9.402;2023-04-25T06:02:56;5.10;;;3.87;;
15958;SDS011;8078;47.822;9.402;2023-04-25T06:05:21;5.97;;;3.73;;
15958;SDS011;8078;47.822;9.402;2023-04-25T06:07:47;5.20;;;4.00;;
15958;SDS011;8078;47.822;9.402;2023-04-25T06:10:12;9.33;;;3.90;;
15958;SDS011;8078;47.822;9.402;2023-04-25T06:12:38;9.70;;;3.73;;
15958;SDS011;8078;47.822;9.402;2023-04-25T06:15:04;5.97;;;3.63;;
15958;SDS011;8078;47.822;9.402;2023-04-25T06:17:30;3.87;;;3.30;;
15958;SDS011;8078;47.822;9.402;2023-04-25T06:19:55;4.47;;;3.13;;
15958;SDS011;8078;47.822;9.402;2023-04-25T06:22:21;5.70;;;3.40;;
15958;SDS011;8078;47.822;9.402;2023-04-25T06:24:46;5.87;;;3.50;;
15958;SDS011;8078;47.822;9.402;2023-04-25T06:27:12;5.40;;;3.47;;
15958;SDS011;8078;47.822;9.402;2023-04-25T06:29:38;7.40;;;3.60;;
15958;SDS011;8078;47.822;9.402;2023-04-25T06:32:03;7.50;;;3.93;;
15958;SDS011;8078;47.822;9.402;2023-04-25T06:34:29;6.37;;;3.80;;
15958;SDS011;8078;47.822;9.402;2023-04-25T06:36:55;7.40;;;4.00;;
15958;SDS011;8078;47.822;9.402;2023-04-25T06:39:20;9.27;;;4.20;;
15958;SDS011;8078;47.822;9.402;2023-04-25T06:41:48;6.70;;;4.40;;
15958;SDS011;8078;47.822;9.402;2023-04-25T06:44:14;6.37;;;4.50;;
15958;SDS011;8078;47.822;9.402;2023-04-25T06:46:40;8.07;;;4.70;;
15958;SDS011;8078;47.822;9.402;2023-04-25T06:49:05;8.77;;;4.87;;
15958;SDS011;8078;47.822;9.402;2023-04-25T06:51:31;6.80;;;4.33;;
15958;SDS011;8078;47.822;9.402;2023-04-25T06:53:56;4.90;;;3.63;;
15958;SDS011;8078;47.822;9.402;2023-04-25T06:56:22;4.87;;;4.23;;
15958;SDS011;8078;47.822;9.402;2023-04-25T06:58:48;9.60;;;4.03;;
15958;SDS011;8078;47.822;9.402;2023-04-25T07:01:14;5.87;;;3.80;;
15958;SDS011;8078;47.822;9.402;2023-04-25T07:03:40;10.73;;;3.80;;
15958;SDS011;8078;47.822;9.402;2023-04-25T07:06:06;8.23;;;3.80;;
15958;SDS011;8078;47.822;9.402;2023-04-25T07:08:31;7.33;;;3.87;;
15958;SDS011;8078;47.822;9.402;2023-04-25T07:10:57;7.77;;;3.63;;
15958;SDS011;8078;47.822;9.402;2023-04-25T07:13:22;8.00;;;4.30;;
15958;SDS011;8078;47.822;9.402;2023-04-25T07:15:48;7.77;;;3.87;;
15958;SDS011;8078;47.822;9.402;2023-04-25T07:18:14;11.40;;;4.13;;
15958;SDS011;8078;47.822;9.402;2023-04-25T07:20:40;8.77;;;4.10;;
15958;SDS011;8078;47.822;9.402;2023-04-25T07:23:05;8.53;;;4.33;;
15958;SDS011;8078;47.822;9.402;2023-04-25T07:25:31;5.90;;;4.07;;
15958;SDS011;8078;47.822;9.402;2023-04-25T07:27:57;5.50;;;3.90;;
15958;SDS011;8078;47.822;9.402;2023-04-25T07:30:22;8.70;;;4.30;;
15958;SDS011;8078;47.822;9.402;2023-04-25T07:32:48;8.93;;;4.47;;
15958;SDS011;8078;47.822;9.402;2023-04-25T07:35:15;6.27;;;3.90;;
15958;SDS011;8078;47.822;9.402;2023-04-25T07:37:41;8.57;;;4.60;;
15958;SDS011;8078;47.822;9.402;2023-04-25T07:40:06;9.43;;;4.33;;
15958;SDS011;8078;47.822;9.402;2023-04-25T07:42:33;9.47;;;4.70;;
15958;SDS011;8078;47.822;9.402;2023-04-25T07:44:59;10.17;;;5.00;;
15958;SDS011;8078;47.822;9.402;2023-04-25T07:47:25;8.93;;;5.20;;
15958;SDS011;8078;47.822;9.402;2023-04-25T07:49:51;7.83;;;4.73;;
15958;SDS011;8078;47.822;9.402;2023-04-25T07:52:17;9.07;;;5.20;;
15958;SDS011;8078;47.822;9.402;2023-04-25T07:54:42;8.93;;;5.70;;
15958;SDS011;8078;47.822;9.402;2023-04-25T07:57:08;11.17;;;5.97;;
15958;SDS011;8078;47.822;9.402;2023-04-25T07:59:33;12.27;;;5.50;;
15958;SDS011;8078;47.822;9.402;2023-04-25T08:01:59;9.70;;;6.00;;
15958;SDS011;8078;47.822;9.402;2023-04-25T08:04:25;7.53;;;5.77;;
15958;SDS011;8078;47.822;9.402;2023-04-25T08:06:51;7.63;;;6.10;;
15958;SDS011;8078;47.822;9.402;2023-04-25T08:09:18;9.73;;;6.40;;
15958;SDS011;8078;47.822;9.402;2023-04-25T08:11:44;8.07;;;5.53;;
15958;SDS011;8078;47.822;9.402;2023-04-25T08:14:10;7.63;;;5.87;;
15958;SDS011;8078;47.822;9.402;2023-04-25T08:16:37;6.83;;;5.53;;
15958;SDS011;8078;47.822;9.402;2023-04-25T08:19:02;6.13;;;5.20;;
15958;SDS011;8078;47.822;9.402;2023-04-25T08:21:28;4.73;;;4.20;;
15958;SDS011;8078;47.822;9.402;2023-04-25T08:23:54;6.17;;;4.67;;
15958;SDS011;8078;47.822;9.402;2023-04-25T08:26:20;5.37;;;3.90;;
15958;SDS011;8078;47.822;9.402;2023-04-25T08:28:45;4.20;;;3.53;;
15958;SDS011;8078;47.822;9.402;2023-04-25T08:31:11;3.57;;;3.27;;
15958;SDS011;8078;47.822;9.402;2023-04-25T08:33:37;4.03;;;3.30;;
15958;SDS011;8078;47.822;9.402;2023-04-25T08:36:02;5.33;;;2.90;;
15958;SDS011;8078;47.822;9.402;2023-04-25T08:38:28;5.67;;;3.87;;
15958;SDS011;8078;47.822;9.402;2023-04-25T08:40:54;4.20;;;3.00;;
15958;SDS011;8078;47.822;9.402;2023-04-25T08:43:21;3.03;;;2.83;;
15958;SDS011;8078;47.822;9.402;2023-04-25T08:45:48;3.50;;;3.10;;
15958;SDS011;8078;47.822;9.402;2023-04-25T08:48:15;3.97;;;3.13;;
15958;SDS011;8078;47.822;9.402;2023-04-25T08:50:49;3.63;;;3.30;;
15958;SDS011;8078;47.822;9.402;2023-04-25T08:53:16;6.03;;;3.87;;
15958;SDS011;8078;47.822;9.402;2023-04-25T08:55:45;3.93;;;3.53;;
15958;SDS011;8078;47.822;9.402;2023-04-25T08:58:11;4.30;;;3.90;;
15958;SDS011;8078;47.822;9.402;2023-04-25T09:00:38;4.93;;;4.30;;
15958;SDS011;8078;47.822;9.402;2023-04-25T09:03:04;5.40;;;4.53;;
15958;SDS011;8078;47.822;9.402;2023-04-25T09:05:30;5.17;;;4.50;;
15958;SDS011;8078;47.822;9.402;2023-04-25T09:08:00;5.10;;;4.60;;
15958;SDS011;8078;47.822;9.402;2023-04-25T09:10:27;5.80;;;5.23;;
15958;SDS011;8078;47.822;9.402;2023-04-25T09:15:31;5.40;;;4.90;;
15958;SDS011;8078;47.822;9.402;2023-04-25T09:17:57;5.90;;;5.17;;
15958;SDS011;8078;47.822;9.402;2023-04-25T09:20:24;7.70;;;5.73;;
15958;SDS011;8078;47.822;9.402;2023-04-25T09:23:00;6.47;;;5.20;;
15958;SDS011;8078;47.822;9.402;2023-04-25T09:25:27;6.83;;;5.07;;
15958;SDS011;8078;47.822;9.402;2023-04-25T09:28:05;10.27;;;6.20;;
15958;SDS011;8078;47.822;9.402;2023-04-25T09:30:32;28.43;;;7.47;;
15958;SDS011;8078;47.822;9.402;2023-04-25T09:33:10;8.20;;;6.43;;
15958;SDS011;8078;47.822;9.402;2023-04-25T09:35:43;9.10;;;7.20;;
15958;SDS011;8078;47.822;9.402;2023-04-25T09:38:10;13.13;;;6.10;;
15958;SDS011;8078;47.822;9.402;2023-04-25T09:40:55;140.10;;;13.33;;
15958;SDS011;8078;47.822;9.402;2023-04-25T09:43:21;167.10;;;13.80;;
15958;SDS011;8078;47.822;9.402;2023-04-25T09:45:48;142.23;;;12.97;;
15958;SDS011;8078;47.822;9.402;2023-04-25T09:48:17;101.07;;;10.83;;
15958;SDS011;8078;47.822;9.402;2023-04-25T09:53:38;6.90;;;5.00;;
15958;SDS011;8078;47.822;9.402;2023-04-25T09:56:05;4.73;;;4.20;;
15958;SDS011;8078;47.822;9.402;2023-04-25T09:58:32;6.87;;;3.97;;
15958;SDS011;8078;47.822;9.402;2023-04-25T10:01:00;5.77;;;3.73;;
15958;SDS011;8078;47.822;9.402;2023-04-25T10:03:31;4.23;;;3.33;;
15958;SDS011;8078;47.822;9.402;2023-04-25T10:06:06;3.10;;;2.90;;
15958;SDS011;8078;47.822;9.402;2023-04-25T10:08:34;4.63;;;2.80;;
15958;SDS011;8078;47.822;9.402;2023-04-25T10:11:02;2.90;;;2.53;;
15958;SDS011;8078;47.822;9.402;2023-04-25T10:13:29;2.93;;;2.43;;
15958;SDS011;8078;47.822;9.402;2023-04-25T10:15:59;3.07;;;2.83;;
15958;SDS011;8078;47.822;9.402;2023-04-25T10:18:30;3.10;;;2.80;;
15958;SDS011;8078;47.822;9.402;2023-04-25T10:20:57;3.00;;;2.50;;
15958;SDS011;8078;47.822;9.402;2023-04-25T10:23:24;3.07;;;2.77;;
15958;SDS011;8078;47.822;9.402;2023-04-25T10:25:51;2.77;;;2.57;;
15958;SDS011;8078;47.822;9.402;2023-04-25T10:28:17;2.70;;;2.50;;
15958;SDS011;8078;47.822;9.402;2023-04-25T10:30:56;2.40;;;2.20;;
15958;SDS011;8078;47.822;9.402;2023-04-25T10:33:29;2.00;;;1.90;;
15958;SDS011;8078;47.822;9.402;2023-04-25T10:35:58;2.00;;;1.90;;
15958;SDS011;8078;47.822;9.402;2023-04-25T10:38:33;2.03;;;1.90;;
15958;SDS011;8078;47.822;9.402;2023-04-25T10:41:05;2.40;;;2.10;;
15958;SDS011;8078;47.822;9.402;2023-04-25T10:43:42;1.80;;;1.70;;
15958;SDS011;8078;47.822;9.402;2023-04-25T10:46:28;2.60;;;2.10;;
15958;SDS011;8078;47.822;9.402;2023-04-25T10:48:56;1.90;;;1.80;;
15958;SDS011;8078;47.822;9.402;2023-04-25T10:51:32;2.10;;;2.00;;
15958;SDS011;8078;47.822;9.402;2023-04-25T10:54:06;2.00;;;1.90;;
15958;SDS011;8078;47.822;9.402;2023-04-25T10:56:38;1.80;;;1.70;;
15958;SDS011;8078;47.822;9.402;2023-04-25T10:59:10;1.70;;;1.60;;
15958;SDS011;8078;47.822;9.402;2023-04-25T11:01:36;1.90;;;1.80;;
15958;SDS011;8078;47.822;9.402;2023-04-25T11:04:03;2.00;;;1.77;;
15958;SDS011;8078;47.822;9.402;2023-04-25T11:06:31;1.60;;;1.50;;
15958;SDS011;8078;47.822;9.402;2023-04-25T11:09:02;1.80;;;1.70;;
15958;SDS011;8078;47.822;9.402;2023-04-25T11:11:33;1.70;;;1.60;;
15958;SDS011;8078;47.822;9.402;2023-04-25T11:14:01;1.60;;;1.50;;
15958;SDS011;8078;47.822;9.402;2023-04-25T11:16:27;1.50;;;1.40;;
15958;SDS011;8078;47.822;9.402;2023-04-25T11:18:53;2.37;;;1.47;;
15958;SDS011;8078;47.822;9.402;2023-04-25T11:21:18;1.73;;;1.63;;
15958;SDS011;8078;47.822;9.402;2023-04-25T11:23:45;1.60;;;1.47;;
15958;SDS011;8078;47.822;9.402;2023-04-25T11:26:11;1.70;;;1.60;;
15958;SDS011;8078;47.822;9.402;2023-04-25T11:28:38;1.70;;;1.60;;
15958;SDS011;8078;47.822;9.402;2023-04-25T11:31:03;1.60;;;1.50;;
15958;SDS011;8078;47.822;9.402;2023-04-25T11:33:29;1.60;;;1.50;;
15958;SDS011;8078;47.822;9.402;2023-04-25T11:35:55;1.20;;;1.20;;
15958;SDS011;8078;47.822;9.402;2023-04-25T11:38:24;1.20;;;1.20;;
15958;SDS011;8078;47.822;9.402;2023-04-25T11:40:51;1.20;;;1.20;;
15958;SDS011;8078;47.822;9.402;2023-04-25T11:43:19;1.50;;;1.50;;
15958;SDS011;8078;47.822;9.402;2023-04-25T11:45:46;1.20;;;1.20;;
15958;SDS011;8078;47.822;9.402;2023-04-25T11:48:15;1.37;;;1.30;;
15958;SDS011;8078;47.822;9.402;2023-04-25T11:50:41;1.27;;;1.17;;
15958;SDS011;8078;47.822;9.402;2023-04-25T11:53:07;1.50;;;1.40;;
15958;SDS011;8078;47.822;9.402;2023-04-25T11:55:33;1.83;;;1.70;;
15958;SDS011;8078;47.822;9.402;2023-04-25T11:58:00;1.23;;;1.20;;
15958;SDS011;8078;47.822;9.402;2023-04-25T12:00:26;1.50;;;1.40;;
15958;SDS011;8078;47.822;9.402;2023-04-25T12:02:52;1.40;;;1.30;;
15958;SDS011;8078;47.822;9.402;2023-04-25T12:05:19;1.30;;;1.30;;
15958;SDS011;8078;47.822;9.402;2023-04-25T12:07:45;1.30;;;1.30;;
15958;SDS011;8078;47.822;9.402;2023-04-25T12:10:12;1.40;;;1.30;;
15958;SDS011;8078;47.822;9.402;2023-04-25T12:12:43;1.27;;;1.27;;
15958;SDS011;8078;47.822;9.402;2023-04-25T12:15:11;1.47;;;1.33;;
15958;SDS011;8078;47.822;9.402;2023-04-25T12:17:48;2.93;;;2.50;;
15958;SDS011;8078;47.822;9.402;2023-04-25T12:20:16;1.63;;;1.53;;
15958;SDS011;8078;47.822;9.402;2023-04-25T12:22:44;1.60;;;1.50;;
15958;SDS011;8078;47.822;9.402;2023-04-25T12:25:12;1.30;;;1.20;;
15958;SDS011;8078;47.822;9.402;2023-04-25T12:27:38;1.30;;;1.20;;
15958;SDS011;8078;47.822;9.402;2023-04-25T12:30:09;1.20;;;1.20;;
15958;SDS011;8078;47.822;9.402;2023-04-25T12:32:35;1.20;;;1.20;;
15958;SDS011;8078;47.822;9.402;2023-04-25T12:35:02;1.33;;;1.23;;
15958;SDS011;8078;47.822;9.402;2023-04-25T12:37:28;1.30;;;1.30;;
15958;SDS011;8078;47.822;9.402;2023-04-25T12:39:54;1.10;;;1.10;;
15958;SDS011;8078;47.822;9.402;2023-04-25T12:42:20;0.90;;;0.90;;
15958;SDS011;8078;47.822;9.402;2023-04-25T12:44:45;0.80;;;0.80;;
15958;SDS011;8078;47.822;9.402;2023-04-25T12:47:11;0.90;;;0.90;;
15958;SDS011;8078;47.822;9.402;2023-04-25T12:49:37;0.90;;;0.90;;
15958;SDS011;8078;47.822;9.402;2023-04-25T12:52:02;0.87;;;0.87;;
15958;SDS011;8078;47.822;9.402;2023-04-25T12:54:28;0.90;;;0.90;;
15958;SDS011;8078;47.822;9.402;2023-04-25T12:56:54;0.80;;;0.80;;
15958;SDS011;8078;47.822;9.402;2023-04-25T12:59:20;0.90;;;0.90;;
15958;SDS011;8078;47.822;9.402;2023-04-25T13:01:46;0.77;;;0.77;;
15958;SDS011;8078;47.822;9.402;2023-04-25T13:04:11;0.93;;;0.93;;
15958;SDS011;8078;47.822;9.402;2023-04-25T13:06:37;0.90;;;0.90;;
15958;SDS011;8078;47.822;9.402;2023-04-25T13:09:03;1.10;;;1.00;;
15958;SDS011;8078;47.822;9.402;2023-04-25T13:11:29;0.80;;;0.80;;
15958;SDS011;8078;47.822;9.402;2023-04-25T13:13:55;1.03;;;0.90;;
15958;SDS011;8078;47.822;9.402;2023-04-25T13:16:20;0.80;;;0.80;;
15958;SDS011;8078;47.822;9.402;2023-04-25T13:18:46;0.90;;;0.90;;
15958;SDS011;8078;47.822;9.402;2023-04-25T13:21:12;0.93;;;0.90;;
15958;SDS011;8078;47.822;9.402;2023-04-25T13:23:37;0.90;;;0.90;;
15958;SDS011;8078;47.822;9.402;2023-04-25T13:26:03;0.80;;;0.80;;
15958;SDS011;8078;47.822;9.402;2023-04-25T13:28:28;0.90;;;0.90;;
15958;SDS011;8078;47.822;9.402;2023-04-25T13:30:54;1.53;;;1.00;;
15958;SDS011;8078;47.822;9.402;2023-04-25T13:33:20;1.00;;;1.00;;
15958;SDS011;8078;47.822;9.402;2023-04-25T13:35:46;1.00;;;1.00;;
15958;SDS011;8078;47.822;9.402;2023-04-25T13:38:22;1.00;;;1.00;;
15958;SDS011;8078;47.822;9.402;2023-04-25T13:40:48;1.20;;;1.10;;
15958;SDS011;8078;47.822;9.402;2023-04-25T13:43:15;1.00;;;1.00;;
15958;SDS011;8078;47.822;9.402;2023-04-25T13:45:41;1.20;;;1.20;;
15958;SDS011;8078;47.822;9.402;2023-04-25T13:48:06;1.40;;;1.30;;
15958;SDS011;8078;47.822;9.402;2023-04-25T13:50:32;1.33;;;1.10;;
15958;SDS011;8078;47.822;9.402;2023-04-25T13:52:57;1.17;;;1.17;;
15958;SDS011;8078;47.822;9.402;2023-04-25T13:55:23;1.20;;;1.20;;
15958;SDS011;8078;47.822;9.402;2023-04-25T13:57:48;1.00;;;1.00;;
15958;SDS011;8078;47.822;9.402;2023-04-25T14:00:14;1.17;;;1.17;;
15958;SDS011;8078;47.822;9.402;2023-04-25T14:02:41;2.13;;;1.40;;
15958;SDS011;8078;47.822;9.402;2023-04-25T14:05:07;1.10;;;1.10;;
15958;SDS011;8078;47.822;9.402;2023-04-25T14:07:34;5.30;;;1.30;;
15958;SDS011;8078;47.822;9.402;2023-04-25T14:10:00;1.37;;;1.27;;
15958;SDS011;8078;47.822;9.402;2023-04-25T14:12:26;1.20;;;1.20;;
15958;SDS011;8078;47.822;9.402;2023-04-25T14:14:51;1.10;;;1.10;;
15958;SDS011;8078;47.822;9.402;2023-04-25T14:17:18;1.40;;;1.30;;
15958;SDS011;8078;47.822;9.402;2023-04-25T14:19:44;1.40;;;1.30;;
15958;SDS011;8078;47.822;9.402;2023-04-25T14:22:12;1.40;;;1.30;;
15958;SDS011;8078;47.822;9.402;2023-04-25T14:24:38;1.43;;;1.33;;
15958;SDS011;8078;47.822;9.402;2023-04-25T14:28:08;2.40;;;1.50;;
15958;SDS011;8078;47.822;9.402;2023-04-25T14:30:35;1.77;;;1.10;;
15958;SDS011;8078;47.822;9.402;2023-04-25T14:33:00;1.43;;;1.33;;
15958;SDS011;8078;47.822;9.402;2023-04-25T14:35:26;2.23;;;1.37;;
15958;SDS011;8078;47.822;9.402;2023-04-25T14:37:52;1.60;;;1.30;;
15958;SDS011;8078;47.822;9.402;2023-04-25T14:40:18;1.30;;;1.20;;
15958;SDS011;8078;47.822;9.402;2023-04-25T14:42:47;1.40;;;1.30;;
15958;SDS011;8078;47.822;9.402;2023-04-25T14:45:12;1.43;;;1.33;;
15958;SDS011;8078;47.822;9.402;2023-04-25T14:47:38;2.37;;;1.17;;
15958;SDS011;8078;47.822;9.402;2023-04-25T14:50:05;1.53;;;1.43;;
15958;SDS011;8078;47.822;9.402;2023-04-25T14:52:32;1.50;;;1.40;;
15958;SDS011;8078;47.822;9.402;2023-04-25T14:54:58;1.90;;;1.70;;
15958;SDS011;8078;47.822;9.402;2023-04-25T14:57:25;1.50;;;1.40;;
15958;SDS011;8078;47.822;9.402;2023-04-25T14:59:51;1.50;;;1.40;;
15958;SDS011;8078;47.822;9.402;2023-04-25T15:02:16;1.70;;;1.60;;
15958;SDS011;8078;47.822;9.402;2023-04-25T15:04:42;2.07;;;1.63;;